Terminal Aerodrome Forecast
Issued by NWS Sterling, VA

Current Version | Previous Version | Graphics & Text | Print | Product List | Glossary On
Versions: 1 2 3 4 5 6 7 8 9 10 11 12 13 14 15 16 17 18 19 20 21 22
000
FTUS41 KLWX 231720
TAFIAD
TAF
KIAD 231720Z 2318/2424 29017G25KT P6SM BKN090
     FM232300 30012KT P6SM BKN080
     FM240200 31007KT P6SM SCT090
     FM241400 31013G21KT P6SM FEW250
     FM242300 31009KT P6SM FEW250=

USA.gov is the U.S. government's official web portal to all federal, state and local government web resources and services.